Time;durP1;ratioP1;P1;durP2;ratioP2;P2;SDS_P1;SDS_P2;PMS_P1;PMS_P2;Temp;Humidity;BMP_temperature;BMP_pressure;BME280_temperature;BME280_humidity;BME280_pressure;Samples;Min_cycle;Max_cycle;Signal;HPM_P1;HPM_P2
2023/03/10 00:00:29;;;;;;;7.10;2.67;;;;;;;12.71;75.68;98668.34;6110882;23;20001;-94
2023/03/10 00:02:55;;;;;;;4.80;2.70;;;;;;;12.69;75.84;98657.06;6111689;23;20005;-94
2023/03/10 00:05:41;;;;;;;3.90;2.70;;;;;;;12.72;75.69;98640.22;6160485;23;20356;-95
2023/03/10 00:08:09;;;;;;;4.75;2.53;;;;;;;12.70;75.65;98631.63;6159915;23;20007;-93
2023/03/10 00:10:35;;;;;;;3.65;2.65;;;;;;;12.72;75.45;98638.34;6159891;23;20000;-94
2023/03/10 00:13:01;;;;;;;4.30;2.72;;;;;;;12.72;75.78;98651.03;6110662;23;20059;-94
2023/03/10 00:15:30;;;;;;;4.25;2.72;;;;;;;12.71;76.13;98646.75;6110722;23;20441;-94
2023/03/10 00:17:56;;;;;;;4.38;2.92;;;;;;;12.54;76.13;98621.13;6112254;23;20001;-94
2023/03/10 00:20:22;;;;;;;4.32;2.50;;;;;;;12.58;76.04;98625.97;6110375;23;20084;-95
2023/03/10 00:22:48;;;;;;;6.03;2.85;;;;;;;12.55;76.36;98619.22;6159452;23;20000;-93
2023/03/10 00:25:17;;;;;;;3.78;2.90;;;;;;;12.38;76.54;98603.63;6110466;23;20044;-95
2023/03/10 00:27:49;;;;;;;5.07;3.10;;;;;;;12.48;76.64;98624.25;6110749;23;19997;-94
2023/03/10 00:30:27;;;;;;;3.47;2.75;;;;;;;12.41;76.39;98610.31;6113236;23;20005;-93
2023/03/10 00:32:56;;;;;;;6.25;2.85;;;;;;;12.40;76.24;98614.13;6111502;23;20001;-94
2023/03/10 00:35:21;;;;;;;4.30;2.95;;;;;;;12.39;75.92;98617.91;6111063;23;20005;-93
2023/03/10 00:37:47;;;;;;;4.18;2.75;;;;;;;12.34;75.97;98616.13;6111974;23;20013;-94
2023/03/10 00:40:14;;;;;;;3.45;2.67;;;;;;;12.41;75.64;98621.94;6113111;23;20001;-94
2023/03/10 00:42:43;;;;;;;4.05;3.05;;;;;;;12.34;75.22;98611.50;6161967;23;20004;-94
2023/03/10 00:45:09;;;;;;;4.78;3.00;;;;;;;12.32;75.75;98612.91;6113881;23;20088;-94
2023/03/10 00:47:35;;;;;;;4.53;2.88;;;;;;;12.30;75.99;98609.72;6161639;23;20080;-93
2023/03/10 00:50:00;;;;;;;4.32;3.08;;;;;;;12.29;75.79;98610.84;6161514;23;19997;-93
2023/03/10 00:52:26;;;;;;;5.85;3.42;;;;;;;12.26;76.44;98601.41;6112565;23;20005;-93
2023/03/10 00:54:52;;;;;;;5.82;3.25;;;;;;;12.20;75.58;98583.75;6112178;23;20005;-94
2023/03/10 00:57:18;;;;;;;4.70;3.25;;;;;;;12.22;75.68;98588.81;6138202;23;20031;-94
2023/03/10 00:59:44;;;;;;;5.18;3.78;;;;;;;12.37;75.56;98607.44;6161356;23;20432;-93
2023/03/10 01:02:10;;;;;;;4.85;3.72;;;;;;;12.30;75.90;98602.41;6161494;23;20005;-94
2023/03/10 01:04:46;;;;;;;5.18;3.60;;;;;;;12.31;76.04;98601.34;6112259;23;20074;-94
2023/03/10 01:07:18;;;;;;;5.57;3.72;;;;;;;12.32;76.35;98600.22;6161179;23;20461;-94
2023/03/10 01:09:43;;;;;;;6.75;4.00;;;;;;;12.22;76.45;98586.13;6138300;23;20001;-93
2023/03/10 01:12:09;;;;;;;5.28;3.60;;;;;;;12.30;75.91;98588.13;6112108;23;20024;-94
2023/03/10 01:14:35;;;;;;;6.47;3.78;;;;;;;12.31;75.52;98576.25;6161574;23;20001;-94
2023/03/10 01:17:02;;;;;;;4.70;2.70;;;;;;;12.16;75.08;98580.03;6112850;23;20005;-93
2023/03/10 01:19:28;;;;;;;3.67;2.65;;;;;;;12.26;75.33;98593.31;6161044;23;19997;-95
2023/03/10 01:21:54;;;;;;;5.78;2.97;;;;;;;12.34;75.26;98603.41;6161101;23;20011;-94
2023/03/10 01:24:20;;;;;;;4.28;2.70;;;;;;;12.18;74.80;98572.44;6112403;23;20060;-94
2023/03/10 01:26:45;;;;;;;4.50;3.20;;;;;;;12.27;75.13;98578.72;6160735;23;20000;-93
2023/03/10 01:29:11;;;;;;;4.75;3.30;;;;;;;12.29;74.57;98576.53;6161906;23;20001;-93
2023/03/10 01:31:40;;;;;;;4.68;3.67;;;;;;;12.14;75.14;98571.44;6161889;23;20001;-94
2023/03/10 01:34:06;;;;;;;5.57;3.60;;;;;;;12.20;75.29;98581.03;6113253;23;20005;-93
2023/03/10 01:36:32;;;;;;;5.25;3.53;;;;;;;12.13;74.82;98565.22;6111735;23;20001;-94
2023/03/10 01:38:59;;;;;;;5.10;3.42;;;;;;;12.11;75.59;98567.41;6112146;23;20016;-94
2023/03/10 01:41:25;;;;;;;6.50;3.80;;;;;;;12.11;75.64;98569.31;6112590;23;20028;-94
2023/03/10 01:43:56;;;;;;;5.72;3.80;;;;;;;12.03;76.11;98562.72;6112311;23;20008;-93
2023/03/10 01:46:50;;;;;;;6.10;4.00;;;;;;;11.99;76.25;98563.59;6135248;23;20120;-94
2023/03/10 01:49:44;;;;;;;5.35;4.00;;;;;;;11.72;76.96;98555.16;6114531;23;20001;-94
2023/03/10 01:55:33;;;;;;;7.28;4.80;;;;;;;11.67;77.60;98574.09;6187481;23;20012;-95
2023/03/10 01:57:59;;;;;;;5.60;4.75;;;;;;;11.69;77.57;98579.19;6111950;23;20015;-94
2023/03/10 02:00:28;;;;;;;6.35;4.57;;;;;;;11.63;77.59;98586.56;6111906;23;20088;-94
2023/03/10 02:03:19;;;;;;;7.22;5.00;;;;;;;11.72;77.72;98600.16;6161141;23;20499;-94
2023/03/10 02:05:49;;;;;;;6.40;4.47;;;;;;;11.65;77.82;98602.47;6138823;23;20362;-94
2023/03/10 02:08:15;;;;;;;6.72;4.57;;;;;;;11.58;78.10;98591.22;6112440;23;19997;-94
2023/03/10 02:10:43;;;;;;;6.07;4.25;;;;;;;11.57;77.47;98581.56;6111853;23;20001;-93
2023/03/10 02:13:14;;;;;;;6.25;4.20;;;;;;;11.54;77.32;98574.88;6112647;23;20333;-93
2023/03/10 02:15:40;;;;;;;6.07;4.20;;;;;;;11.61;77.26;98591.44;6112613;23;20396;-95
2023/03/10 02:18:06;;;;;;;7.10;4.40;;;;;;;11.56;77.43;98591.53;6112797;23;20005;-94
2023/03/10 02:20:38;;;;;;;6.25;4.40;;;;;;;11.50;77.94;98585.44;6111478;23;20338;-94
2023/03/10 02:23:04;;;;;;;6.80;4.93;;;;;;;11.42;78.35;98588.78;6160926;23;20008;-93
2023/03/10 02:25:50;;;;;;;6.95;5.15;;;;;;;11.39;78.82;98600.13;6111712;23;20384;-93
2023/03/10 02:28:28;;;;;;;6.00;4.20;;;;;;;11.35;78.92;98599.16;6161079;23;20011;-94
2023/03/10 02:30:56;;;;;;;5.78;4.18;;;;;;;11.29;78.46;98593.03;6113666;23;20332;-93
2023/03/10 02:33:24;;;;;;;6.00;4.70;;;;;;;11.34;78.75;98608.31;6112754;23;19996;-95
2023/03/10 02:35:50;;;;;;;6.40;5.05;;;;;;;11.29;79.22;98616.50;6112286;23;20009;-94
2023/03/10 02:38:15;;;;;;;6.22;5.03;;;;;;;11.20;79.32;98602.84;6111510;23;20155;-94
2023/03/10 02:40:48;;;;;;;8.15;5.38;;;;;;;11.18;79.41;98609.63;6160856;23;20001;-94
2023/03/10 02:43:17;;;;;;;7.50;4.30;;;;;;;11.24;78.81;98609.25;6160627;23;20018;-94
2023/03/10 02:45:44;;;;;;;6.03;4.10;;;;;;;11.18;78.39;98612.31;6161315;23;20005;-94
2023/03/10 02:48:13;;;;;;;6.03;3.75;;;;;;;11.09;78.33;98599.50;6160379;23;20001;-94
2023/03/10 02:50:43;;;;;;;3.70;3.00;;;;;;;11.14;77.69;98612.09;6135888;23;20001;-93
2023/03/10 02:53:10;;;;;;;3.75;2.90;;;;;;;11.10;77.80;98614.59;6161173;23;20001;-94
2023/03/10 02:55:36;;;;;;;4.25;3.10;;;;;;;10.98;77.58;98595.34;6160769;23;20001;-94
2023/03/10 02:58:02;;;;;;;5.07;3.20;;;;;;;11.04;77.60;98614.91;6160090;23;20067;-94
2023/03/10 03:00:32;;;;;;;4.60;3.53;;;;;;;10.93;77.91;98606.19;6161586;23;20003;-93
2023/03/10 03:02:57;;;;;;;5.03;3.53;;;;;;;11.04;78.04;98626.53;6113006;23;20001;-94
2023/03/10 03:05:23;;;;;;;4.35;3.53;;;;;;;11.04;77.63;98617.63;6111877;23;20515;-95
2023/03/10 03:07:49;;;;;;;7.50;3.60;;;;;;;10.92;77.52;98591.13;6111733;23;19994;-95
2023/03/10 03:10:15;;;;;;;4.57;3.13;;;;;;;11.01;78.09;98621.69;6160532;23;20004;-94
2023/03/10 03:12:41;;;;;;;6.22;4.35;;;;;;;10.81;78.93;98600.41;6111418;23;20432;-95
2023/03/10 03:15:17;;;;;;;6.28;4.20;;;;;;;10.74;78.76;98614.22;6111346;23;20112;-94
2023/03/10 03:17:46;;;;;;;8.43;5.10;;;;;;;10.77;79.34;98621.75;6138473;23;20032;-94
2023/03/10 03:20:15;;;;;;;5.82;4.30;;;;;;;10.58;79.25;98597.44;6113297;23;20000;-93
2023/03/10 03:22:47;;;;;;;5.65;4.07;;;;;;;10.72;78.26;98606.44;6113517;23;20001;-94
2023/03/10 03:25:15;;;;;;;4.85;3.47;;;;;;;10.74;78.07;98616.13;6113716;23;20384;-94
2023/03/10 03:27:41;;;;;;;5.95;3.50;;;;;;;10.81;78.08;98621.94;6112468;23;20045;-94
2023/03/10 03:30:10;;;;;;;4.35;3.25;;;;;;;10.77;77.79;98618.22;6111838;23;20001;-93
2023/03/10 03:32:38;;;;;;;4.97;3.45;;;;;;;10.76;77.83;98603.19;6161320;23;20068;-94
2023/03/10 03:35:12;;;;;;;4.78;3.40;;;;;;;10.80;78.35;98606.91;6160019;23;20102;-93
2023/03/10 03:37:43;;;;;;;4.63;3.35;;;;;;;10.84;78.31;98605.22;6160768;23;20410;-94
2023/03/10 03:40:12;;;;;;;7.57;4.07;;;;;;;10.80;77.71;98614.97;6113062;23;20012;-94
2023/03/10 03:42:42;;;;;;;5.00;3.80;;;;;;;10.72;78.02;98611.81;6112721;23;20004;-95
2023/03/10 03:45:08;;;;;;;7.97;3.63;;;;;;;10.72;78.44;98609.13;6160370;23;20001;-94
2023/03/10 03:47:37;;;;;;;4.65;3.70;;;;;;;10.70;78.25;98600.53;6135333;23;20101;-94
2023/03/10 03:50:03;;;;;;;4.45;3.80;;;;;;;10.76;77.99;98608.56;6159708;23;20084;-94
2023/03/10 03:52:29;;;;;;;5.57;4.18;;;;;;;10.70;78.31;98610.50;6111241;23;20009;-94
2023/03/10 03:54:55;;;;;;;6.18;3.92;;;;;;;10.64;78.08;98599.00;6160463;23;20065;-94
2023/03/10 03:57:21;;;;;;;7.28;4.00;;;;;;;10.67;77.95;98603.03;6112012;23;20041;-95
2023/03/10 03:59:47;;;;;;;6.38;4.53;;;;;;;10.72;78.36;98611.81;6112037;23;20051;-95
2023/03/10 04:02:15;;;;;;;5.85;3.80;;;;;;;10.59;78.05;98595.59;6161680;23;20060;-94
2023/03/10 04:04:41;;;;;;;4.80;3.65;;;;;;;10.69;77.59;98622.38;6113645;23;20003;-94
2023/03/10 04:07:09;;;;;;;5.65;4.50;;;;;;;10.57;78.86;98603.16;6111119;23;19997;-95
2023/03/10 04:09:40;;;;;;;4.68;3.85;;;;;;;10.64;79.13;98598.19;6112616;23;20504;-94
2023/03/10 04:12:12;;;;;;;6.60;4.20;;;;;;;10.78;78.58;98611.78;6114740;23;20429;-94
2023/03/10 04:14:37;;;;;;;5.05;3.90;;;;;;;10.69;78.23;98600.84;6115514;23;20059;-95
2023/03/10 04:17:04;;;;;;;5.95;4.50;;;;;;;10.77;78.05;98602.06;6113953;23;20032;-95
2023/03/10 04:19:32;;;;;;;9.73;5.00;;;;;;;10.82;77.97;98615.50;6162185;23;20001;-94
2023/03/10 04:22:04;;;;;;;6.45;4.53;;;;;;;10.80;77.74;98612.28;6114464;23;20436;-95
2023/03/10 04:24:32;;;;;;;7.88;4.82;;;;;;;10.92;78.09;98618.84;6139603;23;20024;-95
2023/03/10 04:32:38;;;;;;;8.95;5.28;;;;;;;10.69;78.44;98608.94;6187703;23;20032;-95
2023/03/10 04:35:05;;;;;;;8.65;5.32;;;;;;;10.36;78.70;98578.34;6137542;23;20013;-95
2023/03/10 04:37:30;;;;;;;10.35;6.75;;;;;;;10.30;78.96;98589.16;6137610;23;20004;-95
2023/03/10 04:39:56;;;;;;;12.88;7.47;;;;;;;10.29;78.59;98595.66;6113883;23;20091;-95
2023/03/10 04:42:26;;;;;;;13.75;8.85;;;;;;;10.32;78.73;98610.41;6114047;23;20004;-95
2023/03/10 04:44:52;;;;;;;13.45;7.82;;;;;;;10.21;78.71;98598.94;6138476;23;20359;-95
2023/03/10 04:47:18;;;;;;;9.18;6.32;;;;;;;10.20;79.21;98612.66;6137986;23;19993;-94
2023/03/10 04:49:47;;;;;;;9.80;7.55;;;;;;;10.02;79.37;98595.34;6112798;23;20001;-94
2023/03/10 04:52:15;;;;;;;8.10;5.43;;;;;;;9.97;79.60;98590.81;6113314;23;20143;-95
2023/03/10 04:54:41;;;;;;;11.43;6.20;;;;;;;10.18;79.35;98612.94;6113446;23;20008;-94
2023/03/10 04:57:07;;;;;;;8.30;5.72;;;;;;;10.23;78.84;98614.75;6137465;23;20009;-95
2023/03/10 04:59:33;;;;;;;9.88;6.97;;;;;;;10.16;78.57;98604.34;6137431;23;20355;-93
2023/03/10 05:01:59;;;;;;;10.73;7.13;;;;;;;10.21;79.14;98615.06;6112578;23;20055;-94
2023/03/10 05:04:32;;;;;;;12.88;7.25;;;;;;;10.18;78.88;98604.84;6114185;23;20013;-94
2023/03/10 05:07:01;;;;;;;12.25;7.43;;;;;;;10.35;79.13;98627.88;6113696;23;20080;-94
2023/03/10 05:09:47;;;;;;;9.68;7.13;;;;;;;10.21;79.51;98615.06;6138787;23;20001;-94
2023/03/10 05:25:39;;;;;;;11.30;7.47;;;;;;;10.21;79.60;98627.69;6189154;22;20467;-95
2023/03/10 05:28:30;;;;;;;;;;;;;;;;;;;;;
2023/03/10 05:31:39;;;;;;;;;;;;;;;;;;;;;
2023/03/10 05:46:16;;;;;;;7.10;5.03;;;;;;;10.80;78.46;98623.06;6195121;23;20024;-95
2023/03/10 05:56:41;;;;;;;5.07;3.55;;;;;;;11.15;74.69;98594.84;6228071;22;20096;-95
2023/03/10 05:59:10;;;;;;;8.95;5.35;;;;;;;11.36;74.57;98608.81;6181632;23;20023;-95
2023/03/10 06:01:37;;;;;;;8.10;4.75;;;;;;;11.43;73.88;98603.84;6209558;23;20083;-95
2023/03/10 06:04:22;;;;;;;8.70;5.97;;;;;;;11.43;72.38;98582.28;6161538;23;20021;-96
2023/03/10 06:06:50;;;;;;;25.67;9.95;;;;;;;11.55;73.29;98606.09;6125756;23;20017;-94
2023/03/10 06:09:27;;;;;;;24.95;10.40;;;;;;;11.62;72.71;98601.16;6149395;23;19993;-96
2023/03/10 06:28:32;;;;;;;;;;;;;;;;;;;;;
2023/03/10 06:37:42;;;;;;;6.35;3.67;;;;;;;11.93;70.87;98588.00;6138830;23;20101;-95
2023/03/10 06:40:33;;;;;;;6.63;3.33;;;;;;;12.26;70.50;98608.72;6120579;23;20005;-95
2023/03/10 06:43:21;;;;;;;21.55;15.35;;;;;;;12.38;69.25;98608.22;6140951;23;20017;-91
2023/03/10 06:46:44;;;;;;;48.35;24.15;;;;;;;12.52;69.01;98601.72;6087195;23;20106;-96
2023/03/10 07:12:53;;;;;;;4.90;3.30;;;;;;;13.07;68.35;98616.28;6170614;23;20290;-95
2023/03/10 07:51:40;;;;;;;4.45;2.70;;;;;;;13.94;64.11;98585.34;6189296;22;20438;-93
2023/03/10 07:54:40;;;;;;;4.00;3.30;;;;;;;13.98;64.08;98563.06;6119501;23;20017;-93
2023/03/10 07:57:56;;;;;;;5.03;2.50;;;;;;;14.31;62.33;98577.84;6144881;23;20048;-95
2023/03/10 08:00:37;;;;;;;28.10;20.65;;;;;;;14.31;62.85;98561.59;6087159;23;20013;-93
2023/03/10 08:03:44;;;;;;;10.05;6.82;;;;;;;14.42;62.73;98545.91;6146942;23;19997;-94
2023/03/10 08:06:18;;;;;;;135.45;69.97;;;;;;;14.52;62.10;98542.88;6076737;23;20002;-94
2023/03/10 08:08:44;;;;;;;22.33;14.52;;;;;;;14.64;62.77;98536.88;6055386;23;20002;-95
2023/03/10 08:11:10;;;;;;;5.32;3.65;;;;;;;14.37;62.69;98540.59;6056363;23;20013;-93
2023/03/10 08:13:39;;;;;;;47.65;23.33;;;;;;;14.41;62.87;98530.75;6059432;23;20009;-93
2023/03/10 08:16:55;;;;;;;9.82;5.28;;;;;;;14.39;62.89;98511.31;6067759;23;20021;-95
2023/03/10 08:25:14;;;;;;;7.72;4.07;;;;;;;14.96;61.69;98515.88;6139339;23;20033;-96
2023/03/10 08:33:11;;;;;;;6.28;3.60;;;;;;;15.28;60.91;98508.38;6179925;23;20235;-94
2023/03/10 08:35:37;;;;;;;4.78;3.20;;;;;;;15.31;61.00;98503.09;6120003;23;20044;-93
2023/03/10 08:41:44;;;;;;;5.38;3.13;;;;;;;15.81;60.66;98498.22;6073444;23;20013;-93
2023/03/10 08:44:14;;;;;;;4.72;3.10;;;;;;;16.00;59.41;98509.50;6110802;23;20001;-93
2023/03/10 08:47:14;;;;;;;5.82;3.08;;;;;;;16.20;59.40;98509.91;6114749;23;20001;-95
2023/03/10 08:56:52;;;;;;;7.75;3.70;;;;;;;16.46;58.62;98479.88;6126513;23;20093;-93
2023/03/10 08:59:20;;;;;;;6.68;3.08;;;;;;;16.49;58.04;98476.50;6114998;23;20544;-92
2023/03/10 09:02:13;;;;;;;5.07;3.47;;;;;;;16.82;57.47;98483.97;6117396;23;20001;-95
2023/03/10 09:04:39;;;;;;;8.52;2.88;;;;;;;16.93;55.41;98477.00;6128064;23;20008;-92
2023/03/10 09:07:34;;;;;;;7.45;4.07;;;;;;;17.06;54.29;98459.63;6114187;23;20424;-95
2023/03/10 09:09:59;;;;;;;8.02;5.10;;;;;;;17.13;55.02;98449.00;6134992;23;20005;-94
2023/03/10 09:12:27;;;;;;;8.80;2.50;;;;;;;17.26;53.83;98447.09;6117325;23;20005;-95
2023/03/10 09:14:55;;;;;;;4.15;2.20;;;;;;;17.25;51.98;98450.97;6116548;23;20009;-95
2023/03/10 09:17:21;;;;;;;7.50;1.90;;;;;;;17.46;50.22;98436.50;6139513;23;20009;-93
2023/03/10 09:19:49;;;;;;;3.55;1.95;;;;;;;17.41;51.35;98426.66;6114445;23;20000;-95
2023/03/10 09:28:06;;;;;;;4.80;2.58;;;;;;;17.77;51.00;98430.53;6187181;23;20017;-94
2023/03/10 09:37:23;;;;;;;5.93;3.42;;;;;;;17.95;48.93;98403.88;6043200;23;20026;-93
2023/03/10 09:39:48;;;;;;;10.38;2.42;;;;;;;18.15;48.36;98413.88;6019669;23;20367;-93
2023/03/10 09:50:01;;;;;;;9.18;1.90;;;;;;;18.23;47.69;98390.38;5967783;23;20015;-94
2023/03/10 09:52:28;;;;;;;5.35;1.73;;;;;;;18.25;47.94;98384.59;6114601;23;20015;-93
2023/03/10 09:55:17;;;;;;;5.68;1.80;;;;;;;18.40;46.29;98374.88;6137907;23;20409;-95
2023/03/10 09:58:51;;;;;;;;;;;;;;;;;;;;;
2023/03/10 10:01:18;;;;;;;11.48;4.40;;;;;;;18.73;43.71;98393.75;6099455;23;20513;-95
2023/03/10 10:04:15;;;;;;;21.88;11.93;;;;;;;18.63;42.97;98362.31;6031247;23;20002;-94
2023/03/10 10:06:47;;;;;;;6.07;1.90;;;;;;;18.73;43.99;98369.22;6117944;23;20035;-93
2023/03/10 10:09:43;;;;;;;10.13;6.30;;;;;;;18.84;44.62;98374.97;6115745;23;19993;-95
2023/03/10 10:12:16;;;;;;;3.53;1.92;;;;;;;18.90;44.07;98366.19;6116358;23;20421;-96
2023/03/10 10:14:44;;;;;;;1.88;1.33;;;;;;;18.51;44.32;98352.25;6114875;23;20005;-93
2023/03/10 10:17:27;;;;;;;4.07;1.60;;;;;;;18.46;44.81;98344.31;6113731;23;20040;-95
2023/03/10 10:20:02;;;;;;;5.10;2.35;;;;;;;18.76;43.96;98350.22;6113513;23;20495;-93
2023/03/10 10:22:51;;;;;;;;;;;;;;;;;;;;;
2023/03/10 10:29:10;;;;;;;3.60;2.28;;;;;;;18.97;43.94;98313.78;6080719;23;20049;-92
2023/03/10 10:32:18;;;;;;;;;;;;;;;;;;;;;
2023/03/10 10:34:48;;;;;;;6.32;1.67;;;;;;;19.10;44.19;98319.97;6073062;23;20038;-93
2023/03/10 10:37:30;;;;;;;6.25;1.77;;;;;;;19.05;42.97;98309.28;6138265;23;20005;-94
2023/03/10 10:40:16;;;;;;;5.63;2.85;;;;;;;18.89;43.91;98285.53;6136941;23;20450;-92
2023/03/10 10:42:59;;;;;;;3.10;1.90;;;;;;;19.20;43.50;98292.16;6166791;23;20001;-95
2023/03/10 10:45:54;;;;;;;;;;;;;;;;;;;;;
2023/03/10 10:48:44;;;;;;;3.35;1.50;;;;;;;19.50;40.72;98288.94;6167678;23;20072;-93
2023/03/10 10:51:36;;;;;;;4.75;1.50;;;;;;;19.64;39.76;98283.81;6140469;23;20005;-94
2023/03/10 10:54:38;;;;;;;9.00;1.70;;;;;;;19.57;39.71;98267.28;6142308;23;20004;-94
2023/03/10 10:57:12;;;;;;;;;;;;;;;19.62;40.36;98261.53;6137346;23;20495;-94
2023/03/10 10:59:37;;;;;;;5.35;1.75;;;;;;;19.76;39.80;98259.16;6161522;23;19966;-94
2023/03/10 11:02:21;;;;;;;3.42;1.40;;;;;;;19.74;40.15;98249.75;6111963;23;20433;-93
2023/03/10 11:05:16;;;;;;;3.90;1.70;;;;;;;19.75;39.44;98241.16;6138250;23;20028;-95
2023/03/10 11:07:45;;;;;;;3.83;1.88;;;;;;;19.79;39.87;98238.50;6160282;23;19997;-93
2023/03/10 11:13:31;;;;;;;3.60;1.80;;;;;;;19.78;40.13;98213.16;6100733;23;20001;-93
2023/03/10 11:16:21;;;;;;;4.28;1.70;;;;;;;19.90;39.62;98209.50;6116025;23;20068;-94
2023/03/10 11:19:16;;;;;;;4.60;1.63;;;;;;;20.16;39.08;98213.50;6161450;23;20455;-92
2023/03/10 11:21:48;;;;;;;6.13;1.55;;;;;;;20.26;38.86;98196.53;6133560;23;20001;-94
2023/03/10 11:24:36;;;;;;;3.75;1.95;;;;;;;20.43;37.33;98197.22;6137066;23;20008;-95
2023/03/10 11:27:37;;;;;;;6.03;1.70;;;;;;;20.45;37.62;98195.69;6112704;23;20021;-93
2023/03/10 11:31:02;;;;;;;4.43;1.70;;;;;;;20.42;38.90;98188.25;6164776;23;19985;-94
2023/03/10 11:34:20;;;;;;;3.83;1.88;;;;;;;20.27;37.17;98140.69;6077066;23;20002;-93
2023/03/10 11:37:21;;;;;;;3.63;1.42;;;;;;;20.54;37.11;98170.84;6049804;23;20062;-93
2023/03/10 11:40:16;;;;;;;4.60;1.57;;;;;;;20.81;37.18;98160.78;6048860;23;20757;-92
2023/03/10 11:43:16;;;;;;;7.85;1.98;;;;;;;20.97;36.43;98158.69;6051421;23;20313;-92
2023/03/10 11:45:52;;;;;;;4.85;1.52;;;;;;;21.04;36.72;98149.00;6070928;23;20085;-92
2023/03/10 11:48:32;;;;;;;3.05;1.40;;;;;;;20.85;37.16;98156.16;6049877;23;20022;-93
2023/03/10 11:51:05;;;;;;;4.28;1.75;;;;;;;20.63;37.12;98162.44;6097709;23;20002;-93
2023/03/10 11:53:48;;;;;;;2.42;1.40;;;;;;;20.10;37.91;98131.03;6074186;23;20026;-93
2023/03/10 11:56:44;;;;;;;3.80;1.52;;;;;;;20.10;38.03;98128.28;6048515;23;20056;-93
2023/03/10 11:59:50;;;;;;;3.63;1.75;;;;;;;20.49;35.96;98136.41;6014316;23;20057;-93
2023/03/10 12:02:53;;;;;;;;;;;;;;;;;;;;;
2023/03/10 12:05:23;;;;;;;2.75;1.67;;;;;;;20.11;36.77;98126.38;6074072;23;20053;-92
2023/03/10 12:08:17;;;;;;;1.88;1.30;;;;;;;20.02;36.09;98144.91;6049515;23;20437;-93
2023/03/10 12:10:43;;;;;;;5.35;2.40;;;;;;;19.74;36.98;98149.47;5945807;23;20065;-94
2023/03/10 12:13:45;;;;;;;7.53;1.70;;;;;;;19.71;36.77;98138.47;6123779;23;20025;-93
2023/03/10 12:16:17;;;;;;;5.72;1.75;;;;;;;19.81;37.01;98129.69;6122950;23;20005;-94
2023/03/10 12:18:43;;;;;;;3.97;1.90;;;;;;;19.89;35.94;98134.16;6113337;23;20011;-96
2023/03/10 12:21:31;;;;;;;5.70;1.88;;;;;;;19.70;37.04;98121.28;6114426;23;20020;-93
2023/03/10 12:23:58;;;;;;;6.05;2.00;;;;;;;19.61;36.50;98108.97;6116995;23;20007;-93
2023/03/10 12:26:48;;;;;;;3.38;1.60;;;;;;;19.78;37.15;98124.97;6136558;23;20082;-92
2023/03/10 12:29:49;;;;;;;6.07;1.80;;;;;;;19.92;36.09;98122.50;6133734;23;20041;-93
2023/03/10 12:32:47;;;;;;;5.03;2.05;;;;;;;19.74;36.67;98126.84;6123013;23;20005;-92
2023/03/10 12:35:27;;;;;;;5.97;1.88;;;;;;;19.68;38.33;98109.13;6111368;23;20005;-94
2023/03/10 12:38:45;;;;;;;5.65;2.10;;;;;;;19.74;37.26;98115.91;6134642;23;20020;-94
2023/03/10 12:42:16;;;;;;;;;;;;;;;;;;;;;
2023/03/10 12:44:45;;;;;;;7.63;2.43;;;;;;;20.03;36.82;98105.53;6040716;23;20063;-93
2023/03/10 12:47:30;;;;;;;6.50;1.95;;;;;;;19.87;37.27;98111.06;6134852;23;20002;-94
2023/03/10 12:50:32;;;;;;;9.25;2.75;;;;;;;20.04;37.58;98110.59;6109258;23;20084;-94
2023/03/10 12:53:26;;;;;;;6.25;2.00;;;;;;;19.99;37.18;98111.69;6089428;23;20005;-93
2023/03/10 12:56:07;;;;;;;11.25;3.17;;;;;;;19.78;37.77;98101.16;6100991;23;20005;-94
2023/03/10 13:05:40;;;;;;;3.85;2.63;;;;;;;19.55;39.37;98092.88;6091423;23;20023;-94
2023/03/10 13:08:47;;;;;;;2.95;2.00;;;;;;;19.65;39.08;98104.38;6085044;23;20009;-93
2023/03/10 13:11:18;;;;;;;7.97;1.92;;;;;;;19.62;38.61;98094.19;6120015;23;20008;-93
2023/03/10 13:13:50;;;;;;;4.43;2.75;;;;;;;19.52;39.29;98093.59;6131809;23;20011;-92
2023/03/10 13:16:19;;;;;;;5.88;1.45;;;;;;;19.33;39.16;98086.19;6107769;23;20088;-91
2023/03/10 13:18:49;;;;;;;5.40;1.95;;;;;;;19.35;39.51;98091.28;6084638;23;20009;-92
2023/03/10 13:21:26;;;;;;;8.48;2.60;;;;;;;19.34;39.83;98086.97;6083987;23;20472;-92
2023/03/10 13:23:52;;;;;;;6.25;2.80;;;;;;;19.11;40.40;98054.94;6084369;23;20005;-93
2023/03/10 13:29:15;;;;;;;3.90;1.67;;;;;;;19.25;40.44;98068.06;6181238;23;20036;-95
2023/03/10 13:35:32;;;;;;;8.55;3.38;;;;;;;19.16;41.10;98060.09;6197697;23;20110;-93
2023/03/10 13:38:16;;;;;;;19.65;7.70;;;;;;;19.16;41.52;98040.22;6173488;23;20083;-94
2023/03/10 13:41:02;;;;;;;8.90;4.20;;;;;;;19.23;41.74;98039.56;6136955;23;20028;-94
2023/03/10 13:43:50;;;;;;;8.77;3.65;;;;;;;19.34;41.83;98043.28;6115368;23;20001;-92
2023/03/10 13:46:25;;;;;;;3.30;1.63;;;;;;;19.08;42.36;98028.34;6136882;23;20028;-93
2023/03/10 13:48:56;;;;;;;5.72;2.08;;;;;;;18.89;42.93;98031.06;6161644;23;19993;-92
2023/03/10 13:51:44;;;;;;;7.38;2.08;;;;;;;18.68;43.24;98034.09;6114812;23;20032;-93
2023/03/10 13:54:21;;;;;;;9.15;2.00;;;;;;;18.48;44.20;98025.06;6112973;23;20008;-93
2023/03/10 13:56:51;;;;;;;9.95;5.57;;;;;;;18.73;43.47;98034.59;6138290;23;19997;-91
2023/03/10 13:59:30;;;;;;;6.00;2.08;;;;;;;18.52;44.58;98028.66;6112946;23;20005;-92
2023/03/10 14:01:57;;;;;;;4.53;1.67;;;;;;;18.47;45.03;98023.47;6135680;23;20000;-95
2023/03/10 14:04:49;;;;;;;6.70;2.17;;;;;;;18.43;45.36;98023.41;6136553;23;20020;-93
2023/03/10 14:07:24;;;;;;;;;;;;;;;18.55;45.73;98027.94;6137336;23;20439;-94
2023/03/10 14:10:28;;;;;;;4.95;2.08;;;;;;;18.59;45.22;98017.91;6162063;23;19911;-93
2023/03/10 14:13:49;;;;;;;;;;;;;;;;;;;;;
2023/03/10 14:18:47;;;;;;;3.85;2.00;;;;;;;18.21;46.93;97983.94;6222687;22;20017;-93
2023/03/10 14:21:46;;;;;;;8.65;2.50;;;;;;;17.92;48.22;97998.81;6172636;23;20016;-96
2023/03/10 14:24:26;;;;;;;6.80;3.25;;;;;;;18.13;47.94;98018.38;6115757;23;19988;-95
2023/03/10 14:27:23;;;;;;;;;;;;;;;;;;;;;
2023/03/10 14:30:09;;;;;;;8.23;2.97;;;;;;;18.20;48.02;98011.53;6138310;23;20005;-94
2023/03/10 14:32:52;;;;;;;3.78;2.35;;;;;;;18.24;47.77;97996.06;6151783;23;20018;-93
2023/03/10 14:39:10;;;;;;;;;;;;;;;;;;;;;
2023/03/10 14:51:36;;;;;;;9.02;2.75;;;;;;;17.99;50.24;97974.47;6210533;23;20055;-94
2023/03/10 14:54:06;;;;;;;10.30;2.55;;;;;;;17.98;50.28;97973.66;6142125;23;20029;-94
2023/03/10 14:57:07;;;;;;;8.40;2.33;;;;;;;18.04;50.36;97976.94;6143322;23;20099;-94
2023/03/10 14:59:33;;;;;;;5.85;2.50;;;;;;;17.97;50.07;97963.13;6135208;23;20010;-95
2023/03/10 15:02:48;;;;;;;7.97;2.30;;;;;;;17.96;50.27;97948.72;6123857;23;19997;-95
2023/03/10 15:11:28;;;;;;;5.93;2.75;;;;;;;17.72;51.44;97951.59;6175443;23;20016;-95
2023/03/10 15:14:15;;;;;;;9.10;2.72;;;;;;;17.71;51.38;97947.31;6127056;23;20056;-93
2023/03/10 15:19:47;;;;;;;4.95;2.25;;;;;;;17.61;51.77;97920.59;6240771;22;20005;-93
2023/03/10 15:25:12;;;;;;;10.60;3.42;;;;;;;17.50;52.06;97906.72;6226536;22;20014;-94
2023/03/10 15:27:44;;;;;;;6.13;2.38;;;;;;;17.40;52.38;97916.19;6139356;23;20631;-95
2023/03/10 15:30:33;;;;;;;9.32;2.58;;;;;;;17.43;51.49;97891.00;6142333;23;20116;-93
2023/03/10 15:33:01;;;;;;;4.10;2.50;;;;;;;17.64;51.48;97925.31;6134482;23;20005;-93
2023/03/10 15:35:30;;;;;;;10.77;3.70;;;;;;;17.54;51.49;97926.66;6107362;23;20011;-93
2023/03/10 15:37:55;;;;;;;5.60;2.30;;;;;;;17.53;51.22;97935.94;6110299;23;20005;-92
2023/03/10 15:40:51;;;;;;;6.45;3.22;;;;;;;17.53;50.83;97936.72;6108400;23;20015;-93
2023/03/10 15:43:17;;;;;;;10.18;5.40;;;;;;;17.53;50.76;97923.13;6109421;23;20006;-94
2023/03/10 15:45:49;;;;;;;16.17;10.88;;;;;;;17.60;50.90;97935.34;6106440;23;20008;-93
2023/03/10 15:51:41;;;;;;;14.55;4.95;;;;;;;17.36;50.79;97907.16;6152987;23;19989;-95
2023/03/10 15:54:16;;;;;;;7.82;4.45;;;;;;;17.40;51.18;97910.75;6134781;23;20010;-95
2023/03/10 15:56:45;;;;;;;9.95;3.08;;;;;;;17.41;50.59;97900.66;6118143;23;20005;-96
2023/03/10 15:59:20;;;;;;;23.98;3.03;;;;;;;17.34;50.37;97893.88;6141562;22;20029;-95
2023/03/10 16:02:01;;;;;;;4.57;2.00;;;;;;;17.28;50.71;97889.84;6123970;23;20006;-94
2023/03/10 16:04:56;;;;;;;3.35;1.88;;;;;;;17.29;51.64;97901.53;6162556;23;20019;-95
2023/03/10 16:07:54;;;;;;;17.20;11.60;;;;;;;17.28;51.42;97899.94;6151550;23;20009;-94
2023/03/10 16:10:33;;;;;;;6.63;4.40;;;;;;;17.17;51.06;97886.84;6152275;23;20008;-93
2023/03/10 16:13:08;;;;;;;11.45;6.32;;;;;;;17.15;51.52;97900.00;6137289;23;20062;-93